Time;durP1;ratioP1;P1;durP2;ratioP2;P2;SDS_P1;SDS_P2;PMS_P1;PMS_P2;Temp;Humidity;BMP_temperature;BMP_pressure;BME280_temperature;BME280_humidity;BME280_pressure;Samples;Min_cycle;Max_cycle;Signal;HPM_P1;HPM_P2
2022/03/22 00:00:15;;;;;;;24.33;20.40;;;12.30;99.90;;;;;;1015161;29;20037;-65
2022/03/22 00:00:46;;;;;;;24.03;20.93;;;12.30;99.90;;;;;;1014774;29;20060;-64
2022/03/22 00:01:16;;;;;;;23.25;20.75;;;12.30;99.90;;;;;;1014749;29;20043;-67
2022/03/22 00:01:51;;;;;;;23.00;20.60;;;12.30;99.90;;;;;;1014688;29;20135;-65
2022/03/22 00:02:23;;;;;;;22.55;20.15;;;12.30;99.90;;;;;;1014867;29;20832;-64
2022/03/22 00:02:54;;;;;;;24.35;21.73;;;12.30;99.90;;;;;;1015210;29;20020;-65
2022/03/22 00:03:25;;;;;;;22.83;20.30;;;12.30;99.90;;;;;;1017956;29;20031;-65
2022/03/22 00:03:55;;;;;;;24.27;21.53;;;12.30;99.90;;;;;;1018749;29;20027;-64
2022/03/22 00:04:27;;;;;;;24.87;21.60;;;12.30;99.90;;;;;;1018831;29;21006;-63
2022/03/22 00:04:57;;;;;;;23.75;21.38;;;12.30;99.90;;;;;;1019222;29;20028;-64
2022/03/22 00:05:28;;;;;;;24.13;21.70;;;12.30;99.90;;;;;;1019235;29;20114;-65
2022/03/22 00:05:58;;;;;;;22.47;20.17;;;12.20;99.90;;;;;;1019171;29;20071;-64
2022/03/22 00:06:30;;;;;;;22.87;20.33;;;12.20;99.90;;;;;;1019147;29;20031;-65
2022/03/22 00:07:00;;;;;;;22.65;20.20;;;12.20;99.90;;;;;;1019273;29;20051;-64
2022/03/22 00:07:31;;;;;;;22.57;20.17;;;12.20;99.90;;;;;;1019321;29;20036;-64
2022/03/22 00:08:02;;;;;;;27.03;20.90;;;12.20;99.90;;;;;;1018770;29;20106;-65
2022/03/22 00:08:33;;;;;;;22.05;19.77;;;12.20;99.90;;;;;;1014915;29;20027;-64
2022/03/22 00:09:03;;;;;;;24.37;19.90;;;12.20;99.90;;;;;;1017539;29;20055;-64
2022/03/22 00:09:34;;;;;;;23.63;20.50;;;12.20;99.90;;;;;;1016121;29;20115;-66
2022/03/22 00:10:05;;;;;;;24.75;20.92;;;12.20;99.90;;;;;;1015291;29;20046;-64
2022/03/22 00:10:36;;;;;;;27.40;21.52;;;12.20;99.90;;;;;;1015314;29;20479;-64
2022/03/22 00:11:07;;;;;;;24.60;21.15;;;12.20;99.90;;;;;;1015429;29;20485;-65
2022/03/22 00:11:37;;;;;;;23.90;21.43;;;12.20;99.90;;;;;;1015137;29;20063;-66
2022/03/22 00:12:08;;;;;;;23.63;21.23;;;12.20;99.90;;;;;;1015293;29;20024;-64
2022/03/22 00:12:39;;;;;;;23.23;20.73;;;12.20;99.90;;;;;;1014771;29;20031;-65
2022/03/22 00:13:10;;;;;;;27.07;21.90;;;12.20;99.90;;;;;;1014494;29;20080;-64
2022/03/22 00:13:43;;;;;;;22.88;20.58;;;12.20;99.90;;;;;;1015383;29;20028;-66
2022/03/22 00:14:13;;;;;;;24.40;21.80;;;12.20;99.90;;;;;;1014867;29;20778;-63
2022/03/22 00:14:44;;;;;;;24.87;22.37;;;12.20;99.90;;;;;;1010806;29;20811;-67
2022/03/22 00:15:16;;;;;;;23.27;20.75;;;12.10;99.90;;;;;;1011042;29;20103;-65
2022/03/22 00:15:48;;;;;;;23.33;20.83;;;12.10;99.90;;;;;;1013142;29;20418;-64
2022/03/22 00:16:18;;;;;;;25.08;21.42;;;12.10;99.90;;;;;;1018643;29;20020;-65
2022/03/22 00:16:49;;;;;;;24.53;22.00;;;12.10;99.90;;;;;;1019253;29;20122;-64
2022/03/22 00:17:21;;;;;;;23.50;21.00;;;12.10;99.90;;;;;;1019135;29;20086;-64
2022/03/22 00:17:52;;;;;;;24.05;21.58;;;12.10;99.90;;;;;;1018771;29;20024;-64
2022/03/22 00:18:23;;;;;;;22.20;19.83;;;12.10;99.90;;;;;;1018527;29;20024;-65
2022/03/22 00:18:54;;;;;;;24.17;21.58;;;12.10;99.90;;;;;;1018870;29;20039;-64
2022/03/22 00:19:24;;;;;;;24.40;21.73;;;12.10;99.90;;;;;;1018875;29;20068;-64
2022/03/22 00:19:55;;;;;;;25.37;22.23;;;12.10;99.90;;;;;;1018359;29;20028;-65
2022/03/22 00:20:27;;;;;;;22.83;19.93;;;12.10;99.90;;;;;;1015403;29;20096;-64
2022/03/22 00:20:57;;;;;;;22.70;20.23;;;12.10;99.90;;;;;;1015332;29;20020;-64
2022/03/22 00:21:28;;;;;;;24.87;20.60;;;12.10;99.90;;;;;;1015086;29;20044;-64
2022/03/22 00:21:58;;;;;;;22.93;20.53;;;12.10;99.90;;;;;;1015167;29;20111;-64
2022/03/22 00:22:29;;;;;;;23.83;21.40;;;12.10;99.90;;;;;;1015190;29;20024;-64
2022/03/22 00:22:59;;;;;;;23.50;21.00;;;12.10;99.90;;;;;;1015373;29;20020;-64
2022/03/22 00:23:30;;;;;;;25.33;19.97;;;12.00;99.90;;;;;;1015027;29;20036;-64
2022/03/22 00:24:02;;;;;;;25.87;21.27;;;12.00;99.90;;;;;;1015193;29;20016;-64
2022/03/22 00:24:33;;;;;;;23.33;20.73;;;12.00;99.90;;;;;;1015077;29;20051;-66
2022/03/22 00:25:04;;;;;;;23.00;19.88;;;12.00;99.90;;;;;;1019141;29;20008;-64
2022/03/22 00:25:35;;;;;;;24.15;20.30;;;12.00;99.90;;;;;;1018649;29;20171;-64
2022/03/22 00:26:05;;;;;;;23.83;20.33;;;12.00;99.90;;;;;;1018646;29;20115;-64
2022/03/22 00:26:36;;;;;;;24.67;22.07;;;12.00;99.90;;;;;;1018721;29;20522;-64
2022/03/22 00:27:07;;;;;;;25.00;20.77;;;12.00;99.90;;;;;;1018581;29;20046;-66
2022/03/22 00:27:53;;;;;;;26.23;22.83;;;12.00;99.90;;;;;;1019004;29;20038;-64
2022/03/22 00:28:24;;;;;;;22.95;19.40;;;12.00;99.90;;;;;;1019204;29;20474;-64
2022/03/22 00:28:54;;;;;;;24.93;21.40;;;12.00;99.90;;;;;;1018975;29;20499;-64
2022/03/22 00:29:25;;;;;;;23.47;21.00;;;12.00;99.90;;;;;;1019306;29;20023;-64
2022/03/22 00:29:58;;;;;;;26.03;21.83;;;11.90;99.90;;;;;;1018661;29;20068;-66
2022/03/22 00:30:33;;;;;;;27.70;20.77;;;11.90;99.90;;;;;;1018845;29;20062;-65
2022/03/22 00:31:04;;;;;;;24.60;21.55;;;11.90;99.90;;;;;;1018767;29;20020;-64
2022/03/22 00:31:34;;;;;;;24.73;20.33;;;11.90;99.90;;;;;;1022273;29;20142;-64
2022/03/22 00:32:08;;;;;;;25.20;21.43;;;11.90;99.90;;;;;;1018517;29;20020;-64
2022/03/22 00:32:39;;;;;;;22.45;20.25;;;11.90;99.90;;;;;;1018761;29;20591;-65
2022/03/22 00:33:09;;;;;;;22.53;20.17;;;11.90;99.90;;;;;;1014911;29;20377;-64
2022/03/22 00:33:40;;;;;;;24.07;21.50;;;11.90;99.90;;;;;;1015448;29;20675;-65
2022/03/22 00:34:13;;;;;;;25.13;21.47;;;11.90;99.90;;;;;;1014593;29;20021;-65
2022/03/22 00:34:46;;;;;;;23.75;21.42;;;11.90;99.90;;;;;;1015074;29;20021;-65
2022/03/22 00:35:18;;;;;;;24.77;22.13;;;11.90;99.90;;;;;;1018622;29;20507;-65
2022/03/22 00:35:49;;;;;;;22.90;20.35;;;11.90;99.90;;;;;;1018823;29;20020;-65
2022/03/22 00:36:20;;;;;;;24.13;21.58;;;11.90;99.90;;;;;;1019202;29;20020;-64
2022/03/22 00:36:50;;;;;;;23.43;20.90;;;11.90;99.90;;;;;;1018774;29;20020;-65
2022/03/22 00:37:21;;;;;;;24.07;21.47;;;11.90;99.90;;;;;;1018653;29;20015;-65
2022/03/22 00:37:53;;;;;;;22.93;20.63;;;11.90;99.90;;;;;;1018940;29;20754;-66
2022/03/22 00:38:24;;;;;;;23.02;20.05;;;11.90;99.90;;;;;;1018839;29;20402;-64
2022/03/22 00:38:54;;;;;;;24.27;20.63;;;11.90;99.90;;;;;;1019199;29;20352;-66
2022/03/22 00:39:26;;;;;;;23.10;20.67;;;11.90;99.90;;;;;;1019033;29;20023;-64
2022/03/22 00:39:56;;;;;;;25.15;22.50;;;11.90;99.90;;;;;;1018723;29;20058;-65
2022/03/22 00:40:28;;;;;;;22.97;20.57;;;11.90;99.90;;;;;;1018797;29;20024;-65
2022/03/22 00:40:58;;;;;;;22.75;20.35;;;11.90;99.90;;;;;;1018965;29;20019;-65
2022/03/22 00:41:29;;;;;;;25.97;23.20;;;11.90;99.90;;;;;;1018696;29;20126;-65
2022/03/22 00:41:59;;;;;;;24.83;22.20;;;11.90;99.90;;;;;;1018877;29;20379;-64
2022/03/22 00:42:30;;;;;;;23.17;20.13;;;11.80;99.90;;;;;;1018716;29;20595;-65
2022/03/22 00:43:01;;;;;;;22.80;20.43;;;11.80;99.90;;;;;;1014827;29;20028;-64
2022/03/22 00:43:34;;;;;;;24.67;21.77;;;11.80;99.90;;;;;;1018755;29;20056;-65
2022/03/22 00:44:04;;;;;;;24.13;21.63;;;11.80;99.90;;;;;;1018856;29;20023;-65
2022/03/22 00:44:37;;;;;;;24.03;21.00;;;11.80;99.90;;;;;;1015192;29;20039;-66
2022/03/22 00:45:08;;;;;;;24.05;21.42;;;11.80;99.90;;;;;;1018337;29;20379;-65
2022/03/22 00:45:39;;;;;;;24.40;21.85;;;11.80;99.90;;;;;;1018561;29;20079;-66
2022/03/22 00:46:09;;;;;;;25.08;21.38;;;11.80;99.90;;;;;;1016273;29;20087;-66
2022/03/22 00:46:40;;;;;;;25.67;22.00;;;11.80;99.90;;;;;;1014843;29;20036;-65
2022/03/22 00:47:11;;;;;;;24.07;21.77;;;11.80;99.90;;;;;;1014824;29;20115;-65
2022/03/22 00:47:45;;;;;;;25.80;22.43;;;11.80;99.90;;;;;;1014676;29;20026;-66
2022/03/22 00:48:16;;;;;;;25.10;22.48;;;11.80;99.90;;;;;;1014878;29;20376;-65
2022/03/22 00:48:47;;;;;;;23.23;20.57;;;11.80;99.90;;;;;;1014677;29;20588;-66
2022/03/22 00:49:18;;;;;;;23.25;20.30;;;11.80;99.90;;;;;;1015250;29;20027;-65
2022/03/22 00:49:48;;;;;;;26.03;21.40;;;11.80;99.90;;;;;;1014707;29;20012;-65
2022/03/22 00:50:22;;;;;;;23.27;20.77;;;11.80;99.90;;;;;;1014551;29;20047;-65
2022/03/22 00:50:52;;;;;;;26.92;21.40;;;11.80;99.90;;;;;;1014764;29;20020;-66
2022/03/22 00:51:24;;;;;;;23.70;20.17;;;11.80;99.90;;;;;;1014775;29;20021;-66
2022/03/22 00:51:54;;;;;;;25.02;21.38;;;11.80;99.90;;;;;;1014539;29;20071;-65
2022/03/22 00:52:25;;;;;;;22.00;19.60;;;11.80;99.90;;;;;;1015319;29;20020;-65
2022/03/22 00:52:57;;;;;;;24.40;21.70;;;11.80;99.90;;;;;;1014718;29;20012;-65
2022/03/22 00:53:28;;;;;;;23.38;20.92;;;11.70;99.90;;;;;;1014863;29;20059;-67
2022/03/22 00:54:02;;;;;;;26.87;21.17;;;11.70;99.90;;;;;;1014713;29;20070;-66
2022/03/22 00:54:33;;;;;;;22.38;20.08;;;11.70;99.90;;;;;;1016418;29;20016;-66
2022/03/22 00:55:05;;;;;;;23.55;20.38;;;11.70;99.90;;;;;;1018935;29;20020;-66
2022/03/22 00:55:36;;;;;;;23.67;21.30;;;11.70;99.90;;;;;;1018675;29;20024;-66
2022/03/22 00:56:08;;;;;;;25.02;20.48;;;11.70;99.90;;;;;;1018852;28;20106;-66
2022/03/22 00:56:39;;;;;;;22.70;19.25;;;11.70;99.90;;;;;;1018867;29;20470;-66
2022/03/22 00:57:10;;;;;;;23.10;20.60;;;11.70;99.90;;;;;;1018997;29;20020;-66
2022/03/22 00:57:41;;;;;;;22.60;20.27;;;11.70;99.90;;;;;;1019049;29;20110;-66
2022/03/22 00:58:12;;;;;;;25.75;22.83;;;11.70;99.90;;;;;;1018890;29;20027;-66
2022/03/22 00:58:43;;;;;;;23.90;21.40;;;11.70;99.90;;;;;;1018770;29;20046;-66
2022/03/22 01:00:09;;;;;;;23.33;20.83;;;11.70;99.90;;;;;;1016761;29;20042;-66
2022/03/22 01:00:41;;;;;;;22.75;20.33;;;11.70;99.90;;;;;;1017839;29;20035;-66
2022/03/22 01:01:11;;;;;;;22.98;20.33;;;11.70;99.90;;;;;;1018788;29;20023;-66
2022/03/22 01:01:42;;;;;;;24.47;21.60;;;11.70;99.90;;;;;;1018706;29;20035;-66
2022/03/22 01:02:13;;;;;;;25.07;21.43;;;11.60;99.90;;;;;;1018775;29;20063;-65
2022/03/22 01:02:49;;;;;;;24.73;21.98;;;11.60;99.90;;;;;;1022188;29;20024;-65
2022/03/22 01:03:20;;;;;;;25.92;21.05;;;11.60;99.90;;;;;;1018486;29;20091;-66
2022/03/22 01:03:50;;;;;;;23.80;21.47;;;11.60;99.90;;;;;;1018605;29;20038;-67
2022/03/22 01:04:24;;;;;;;23.13;20.73;;;11.60;99.90;;;;;;1017905;29;20026;-66
2022/03/22 01:04:56;;;;;;;24.17;21.77;;;11.60;99.90;;;;;;1015233;29;20084;-65
2022/03/22 01:05:28;;;;;;;24.15;21.73;;;11.60;99.90;;;;;;1015176;29;20036;-66
2022/03/22 01:06:01;;;;;;;22.92;20.52;;;11.60;99.90;;;;;;1015080;29;20028;-65
2022/03/22 01:06:32;;;;;;;24.60;21.85;;;11.60;99.90;;;;;;1014949;29;20044;-65
2022/03/22 01:07:03;;;;;;;24.90;22.17;;;11.60;99.90;;;;;;1015247;29;20021;-66
2022/03/22 01:07:34;;;;;;;24.95;21.38;;;11.60;99.90;;;;;;1015023;29;20027;-66
2022/03/22 01:08:08;;;;;;;24.83;22.25;;;11.60;99.90;;;;;;1017665;29;20027;-65
2022/03/22 01:08:39;;;;;;;25.33;22.27;;;11.60;99.90;;;;;;1018920;29;20095;-64
2022/03/22 01:09:10;;;;;;;23.03;20.40;;;11.60;99.90;;;;;;1019176;29;20011;-66
2022/03/22 01:09:41;;;;;;;24.50;21.85;;;11.60;99.90;;;;;;1018861;29;20017;-66
2022/03/22 01:10:12;;;;;;;23.07;20.67;;;11.60;99.90;;;;;;1018988;29;20103;-66
2022/03/22 01:10:52;;;;;;;22.58;20.38;;;11.50;99.90;;;;;;1018514;29;20039;-66
2022/03/22 01:11:22;;;;;;;25.38;21.08;;;11.60;99.90;;;;;;1019201;29;20086;-65
2022/03/22 01:11:53;;;;;;;24.37;21.57;;;11.50;99.90;;;;;;1018622;29;20019;-65
2022/03/22 01:12:23;;;;;;;26.27;21.33;;;11.50;99.90;;;;;;1018569;29;20028;-64
2022/03/22 01:12:54;;;;;;;25.37;21.47;;;11.50;99.90;;;;;;1014442;29;20028;-66
2022/03/22 01:13:27;;;;;;;23.08;20.67;;;11.50;99.90;;;;;;1015269;29;20467;-66
2022/03/22 01:13:57;;;;;;;23.38;20.95;;;11.50;99.90;;;;;;1018489;29;20055;-64
2022/03/22 01:14:28;;;;;;;23.73;21.30;;;11.50;99.90;;;;;;1018432;29;20078;-66
2022/03/22 01:14:58;;;;;;;23.03;20.73;;;11.50;99.90;;;;;;1014303;29;20500;-63
2022/03/22 01:15:35;;;;;;;26.73;22.23;;;11.50;99.90;;;;;;1014726;29;20064;-66
2022/03/22 01:16:05;;;;;;;24.85;21.40;;;11.50;99.90;;;;;;1014426;29;20463;-66
2022/03/22 01:16:38;;;;;;;23.30;21.00;;;11.50;99.90;;;;;;1014679;29;20547;-65
2022/03/22 01:17:08;;;;;;;22.27;20.08;;;11.50;99.90;;;;;;1014714;29;20027;-65
2022/03/22 01:17:39;;;;;;;22.30;20.13;;;11.50;99.90;;;;;;1014653;29;20128;-65
2022/03/22 01:18:11;;;;;;;23.33;20.83;;;11.50;99.90;;;;;;1014579;29;20024;-65
2022/03/22 01:18:42;;;;;;;22.40;20.08;;;11.50;99.90;;;;;;1014801;29;20013;-66
2022/03/22 01:19:12;;;;;;;24.07;21.57;;;11.50;99.90;;;;;;1015018;29;20055;-66
2022/03/22 01:19:43;;;;;;;22.77;20.37;;;11.50;99.90;;;;;;1014978;29;20027;-65
2022/03/22 01:20:14;;;;;;;23.30;21.03;;;11.50;99.90;;;;;;1016813;29;20484;-65
2022/03/22 01:20:48;;;;;;;24.17;21.52;;;11.50;99.90;;;;;;1018515;29;20031;-66
2022/03/22 01:21:18;;;;;;;25.95;22.33;;;11.50;99.90;;;;;;1014990;29;20027;-66
2022/03/22 01:21:49;;;;;;;21.80;19.47;;;11.60;99.90;;;;;;1014917;29;20138;-65
2022/03/22 01:22:20;;;;;;;22.15;19.70;;;11.50;99.90;;;;;;1014954;29;20043;-65
2022/03/22 01:22:51;;;;;;;22.43;20.00;;;11.50;99.90;;;;;;1015167;29;20103;-65
2022/03/22 01:23:22;;;;;;;21.80;19.52;;;11.50;99.90;;;;;;1014789;29;20519;-66
2022/03/22 01:23:52;;;;;;;25.87;20.63;;;11.50;99.90;;;;;;1015211;29;20022;-65
2022/03/22 01:24:23;;;;;;;23.77;21.27;;;11.50;99.90;;;;;;1015095;29;20124;-66
2022/03/22 01:24:54;;;;;;;22.50;20.13;;;11.50;99.90;;;;;;1014971;29;20026;-66
2022/03/22 01:25:27;;;;;;;24.07;20.37;;;11.50;99.90;;;;;;1015055;29;20044;-66
2022/03/22 01:25:57;;;;;;;25.45;21.95;;;11.50;99.90;;;;;;1014745;29;20025;-65
2022/03/22 01:26:29;;;;;;;22.63;20.20;;;11.50;99.90;;;;;;1014867;29;20056;-66
2022/03/22 01:26:59;;;;;;;24.23;21.63;;;11.50;99.90;;;;;;1014300;29;20513;-65
2022/03/22 01:27:29;;;;;;;23.63;20.67;;;11.50;99.90;;;;;;1015366;29;20316;-65
2022/03/22 01:28:02;;;;;;;24.10;20.20;;;11.50;99.90;;;;;;1018571;29;20048;-66
2022/03/22 01:28:33;;;;;;;23.10;20.63;;;11.50;99.90;;;;;;1018587;29;20802;-65
2022/03/22 01:29:04;;;;;;;22.88;20.42;;;11.50;99.90;;;;;;1018647;29;20493;-64
2022/03/22 01:29:34;;;;;;;23.77;21.27;;;11.50;99.90;;;;;;1019039;29;20024;-64
2022/03/22 01:30:07;;;;;;;28.63;22.07;;;11.50;99.90;;;;;;1018888;29;20035;-64
2022/03/22 01:30:38;;;;;;;24.13;21.63;;;11.50;99.90;;;;;;1018886;29;20032;-65
2022/03/22 01:31:09;;;;;;;22.30;20.00;;;11.50;99.90;;;;;;1018727;29;20023;-65
2022/03/22 01:31:40;;;;;;;23.13;20.52;;;11.50;99.90;;;;;;1018831;29;20054;-64
2022/03/22 01:32:10;;;;;;;23.23;20.73;;;11.40;99.90;;;;;;1018802;29;20039;-66
2022/03/22 01:32:42;;;;;;;22.13;19.87;;;11.40;99.90;;;;;;1018959;29;20519;-66
2022/03/22 01:33:13;;;;;;;23.52;21.02;;;11.40;99.90;;;;;;1019017;29;20031;-67
2022/03/22 01:33:43;;;;;;;24.07;21.53;;;11.40;99.90;;;;;;1018222;29;20035;-65
2022/03/22 01:34:14;;;;;;;24.20;21.80;;;11.40;99.90;;;;;;1018599;29;20012;-64
2022/03/22 01:34:44;;;;;;;23.20;20.80;;;11.40;99.90;;;;;;1014491;29;20052;-66
2022/03/22 01:35:16;;;;;;;24.97;22.03;;;11.40;99.90;;;;;;1010642;29;20084;-66
2022/03/22 01:35:47;;;;;;;24.15;21.65;;;11.40;99.90;;;;;;1011071;29;20843;-66
2022/03/22 01:36:17;;;;;;;24.50;21.87;;;11.40;99.90;;;;;;1014468;29;20401;-66
2022/03/22 01:36:48;;;;;;;27.70;21.33;;;11.40;99.90;;;;;;1018711;29;20916;-64
2022/03/22 01:37:18;;;;;;;24.50;20.07;;;11.40;99.90;;;;;;1018799;29;20023;-64
2022/03/22 01:37:50;;;;;;;22.87;20.40;;;11.30;99.90;;;;;;1018967;29;20012;-64
2022/03/22 01:38:22;;;;;;;23.95;21.42;;;11.40;99.90;;;;;;1018881;29;20087;-65
2022/03/22 01:38:53;;;;;;;24.52;20.77;;;11.40;99.90;;;;;;1018796;29;20433;-66
2022/03/22 01:39:23;;;;;;;23.00;20.70;;;11.40;99.90;;;;;;1018939;29;20760;-66
2022/03/22 01:39:54;;;;;;;24.57;21.27;;;11.40;99.90;;;;;;1018922;29;20023;-64
2022/03/22 01:40:27;;;;;;;23.97;21.57;;;11.40;99.90;;;;;;1018960;29;20039;-64
2022/03/22 01:40:57;;;;;;;21.20;19.13;;;11.40;99.90;;;;;;1019024;29;20401;-64
2022/03/22 01:41:28;;;;;;;24.50;21.90;;;11.40;99.90;;;;;;1018455;29;20785;-65
2022/03/22 01:41:58;;;;;;;24.17;21.67;;;11.30;99.90;;;;;;1015071;29;20020;-65
2022/03/22 01:42:29;;;;;;;23.63;20.97;;;11.30;99.90;;;;;;1017872;29;20016;-65
2022/03/22 01:42:59;;;;;;;23.73;21.33;;;11.30;99.90;;;;;;1019011;29;20439;-64
2022/03/22 01:43:30;;;;;;;23.43;20.87;;;11.30;99.90;;;;;;1018484;29;20032;-65
2022/03/22 01:44:01;;;;;;;28.90;21.43;;;11.30;99.90;;;;;;1018545;29;20552;-64
2022/03/22 01:44:32;;;;;;;22.48;20.10;;;11.30;99.90;;;;;;1018453;29;20102;-64
2022/03/22 01:45:03;;;;;;;24.30;21.00;;;11.30;99.90;;;;;;1018510;29;20098;-67
2022/03/22 01:45:34;;;;;;;24.05;20.35;;;11.30;99.90;;;;;;1018862;29;20016;-65
2022/03/22 01:46:05;;;;;;;24.53;21.90;;;11.30;99.90;;;;;;1018477;29;20055;-64
2022/03/22 01:46:37;;;;;;;23.40;21.07;;;11.30;99.90;;;;;;1015479;29;20699;-66
2022/03/22 01:47:08;;;;;;;23.95;21.70;;;11.30;99.90;;;;;;1014676;29;20031;-65
2022/03/22 01:47:40;;;;;;;24.53;21.70;;;11.30;99.90;;;;;;1014547;29;20028;-65
2022/03/22 01:48:10;;;;;;;24.25;21.63;;;11.30;99.90;;;;;;1015160;29;20042;-65
2022/03/22 01:48:41;;;;;;;23.87;21.13;;;11.30;99.90;;;;;;1014749;29;20392;-65
2022/03/22 01:49:11;;;;;;;25.67;22.03;;;11.30;99.90;;;;;;1015016;29;20031;-64
2022/03/22 01:49:43;;;;;;;25.00;22.37;;;11.30;99.90;;;;;;1014756;29;20084;-65
2022/03/22 01:50:18;;;;;;;24.83;22.30;;;11.30;99.90;;;;;;1014773;29;20075;-65
2022/03/22 01:50:49;;;;;;;23.80;20.77;;;11.30;99.90;;;;;;1014543;29;20136;-65
2022/03/22 01:51:23;;;;;;;22.30;19.90;;;11.30;99.90;;;;;;1014851;29;20032;-65
2022/03/22 01:51:54;;;;;;;24.13;21.40;;;11.30;99.90;;;;;;1014660;29;20064;-66
2022/03/22 01:52:25;;;;;;;23.70;20.45;;;11.20;99.90;;;;;;1014907;29;20116;-64
2022/03/22 01:52:58;;;;;;;23.23;20.73;;;11.20;99.90;;;;;;1014955;29;20023;-65
2022/03/22 01:53:29;;;;;;;22.90;20.52;;;11.20;99.90;;;;;;1015097;29;20040;-64
2022/03/22 01:54:00;;;;;;;23.27;20.88;;;11.20;99.90;;;;;;1014659;29;20038;-64
2022/03/22 01:54:31;;;;;;;24.23;21.60;;;11.20;99.90;;;;;;1015023;29;20039;-65
2022/03/22 01:55:03;;;;;;;23.37;20.83;;;11.20;99.90;;;;;;1014908;29;20384;-66
2022/03/22 01:55:33;;;;;;;22.40;20.10;;;11.20;99.90;;;;;;1015162;29;20024;-65
2022/03/22 01:56:04;;;;;;;26.47;21.40;;;11.20;99.90;;;;;;1018841;29;20118;-64
2022/03/22 01:56:36;;;;;;;23.60;21.20;;;11.20;99.90;;;;;;1017572;29;20502;-64
2022/03/22 01:57:07;;;;;;;22.33;19.90;;;11.20;99.90;;;;;;1014985;29;20432;-65
2022/03/22 01:57:38;;;;;;;22.23;19.52;;;11.20;99.90;;;;;;1014823;29;20067;-66
2022/03/22 01:58:09;;;;;;;22.27;19.50;;;11.20;99.90;;;;;;1014760;29;20024;-65
2022/03/22 01:58:40;;;;;;;22.95;19.88;;;11.20;99.90;;;;;;1014643;29;20774;-65
2022/03/22 01:59:11;;;;;;;23.20;20.80;;;11.20;99.90;;;;;;1014612;29;20020;-64
2022/03/22 01:59:41;;;;;;;23.90;21.40;;;11.20;99.90;;;;;;1014521;29;20162;-64
2022/03/22 02:00:15;;;;;;;22.93;20.50;;;11.20;99.90;;;;;;1010579;29;20052;-66
2022/03/22 02:00:46;;;;;;;27.35;20.58;;;11.20;99.90;;;;;;1012205;29;20037;-67
2022/03/22 02:06:16;;;;;;;23.55;21.10;;;11.20;99.90;;;;;;1020204;29;20034;-66
2022/03/22 02:06:51;;;;;;;23.27;20.95;;;11.20;99.90;;;;;;1019058;29;20008;-66
2022/03/22 02:07:22;;;;;;;26.38;22.42;;;11.20;99.90;;;;;;1016280;29;20424;-67
2022/03/22 02:07:52;;;;;;;22.93;20.67;;;11.20;99.90;;;;;;1017263;29;20432;-66
2022/03/22 02:08:24;;;;;;;24.23;21.63;;;11.20;99.90;;;;;;1019884;29;20024;-66
2022/03/22 02:08:55;;;;;;;24.58;22.02;;;11.20;99.90;;;;;;1020273;29;20012;-65
2022/03/22 02:09:26;;;;;;;23.27;20.97;;;11.20;99.90;;;;;;1019806;29;20008;-64
2022/03/22 02:09:56;;;;;;;23.63;21.30;;;11.20;99.90;;;;;;1019609;29;20044;-64
2022/03/22 02:10:27;;;;;;;24.20;21.60;;;11.20;99.90;;;;;;1019870;29;20022;-65
2022/03/22 02:11:02;;;;;;;24.25;21.70;;;11.20;99.90;;;;;;1019762;29;20067;-65
2022/03/22 02:11:34;;;;;;;23.13;20.05;;;11.20;99.90;;;;;;1020084;29;20015;-65
2022/03/22 02:12:05;;;;;;;24.13;20.95;;;11.20;99.90;;;;;;1017585;29;20040;-64
2022/03/22 02:12:35;;;;;;;23.38;20.80;;;11.20;99.90;;;;;;1016341;29;20068;-65
2022/03/22 02:13:06;;;;;;;24.70;22.17;;;11.20;99.90;;;;;;1016235;29;20032;-64
2022/03/22 02:13:36;;;;;;;24.57;22.07;;;11.20;99.90;;;;;;1015974;29;20658;-66
2022/03/22 02:14:08;;;;;;;24.60;21.93;;;11.20;99.90;;;;;;1016406;29;20091;-64
2022/03/22 02:14:39;;;;;;;27.70;20.67;;;11.10;99.90;;;;;;1016094;29;20094;-65
2022/03/22 02:15:11;;;;;;;24.13;21.40;;;11.20;99.90;;;;;;1016139;29;20080;-64
2022/03/22 02:15:44;;;;;;;25.27;22.67;;;11.10;99.90;;;;;;1016228;29;20016;-65
2022/03/22 02:16:15;;;;;;;25.50;21.75;;;11.20;99.90;;;;;;1016280;29;20016;-64
2022/03/22 02:16:45;;;;;;;24.77;22.37;;;11.10;99.90;;;;;;1016106;29;20039;-66
2022/03/22 02:17:16;;;;;;;24.03;21.53;;;11.10;99.90;;;;;;1016175;29;20020;-65
2022/03/22 02:17:46;;;;;;;26.37;23.67;;;11.10;99.90;;;;;;1015754;29;20128;-65
2022/03/22 02:18:18;;;;;;;23.17;20.73;;;11.10;99.90;;;;;;1015839;29;20027;-66
2022/03/22 02:18:51;;;;;;;24.08;21.55;;;11.10;99.90;;;;;;1015709;29;20043;-65
2022/03/22 02:19:22;;;;;;;25.30;22.88;;;11.10;99.90;;;;;;1015948;29;20016;-66
2022/03/22 02:19:54;;;;;;;22.83;20.37;;;11.10;99.90;;;;;;1016232;29;20012;-65
2022/03/22 02:20:25;;;;;;;25.48;22.77;;;11.10;99.90;;;;;;1016090;29;20022;-65
2022/03/22 02:20:58;;;;;;;24.55;21.75;;;11.10;99.90;;;;;;1016327;29;20052;-65
2022/03/22 02:21:31;;;;;;;23.58;20.98;;;11.10;99.90;;;;;;1016409;29;20131;-66
2022/03/22 02:22:05;;;;;;;23.48;21.17;;;11.10;99.90;;;;;;1016116;29;20054;-66
2022/03/22 02:23:02;;;;;;;23.05;20.65;;;11.10;99.90;;;;;;1019991;28;20102;-65
2022/03/22 02:23:52;;;;;;;25.30;21.52;;;11.00;99.90;;;;;;1019603;29;20015;-65
2022/03/22 02:24:22;;;;;;;25.73;21.33;;;11.10;99.90;;;;;;1015873;29;20055;-65
2022/03/22 02:24:53;;;;;;;25.17;22.20;;;11.10;99.90;;;;;;1016190;29;20020;-66
2022/03/22 02:25:24;;;;;;;26.77;23.17;;;11.10;99.90;;;;;;1016122;29;20024;-65
2022/03/22 02:25:54;;;;;;;23.07;20.63;;;11.10;99.90;;;;;;1016140;29;20020;-65
2022/03/22 02:26:27;;;;;;;24.03;19.30;;;11.10;99.90;;;;;;1016072;29;20016;-65
2022/03/22 02:26:57;;;;;;;24.00;21.60;;;11.00;99.90;;;;;;1015714;29;20020;-65
2022/03/22 02:27:30;;;;;;;25.60;22.20;;;11.10;99.90;;;;;;1018504;29;20023;-66
2022/03/22 02:28:03;;;;;;;26.20;22.70;;;11.10;99.90;;;;;;1019761;29;20012;-65
2022/03/22 02:28:33;;;;;;;24.83;22.35;;;11.00;99.90;;;;;;1019753;29;20427;-65
2022/03/22 02:29:04;;;;;;;24.30;21.20;;;11.00;99.90;;;;;;1020046;29;20492;-65
2022/03/22 02:29:36;;;;;;;25.75;23.05;;;11.00;99.90;;;;;;1020246;29;20383;-65
2022/03/22 02:30:07;;;;;;;23.27;20.90;;;11.00;99.90;;;;;;1019713;29;20015;-65
2022/03/22 02:30:38;;;;;;;26.00;23.02;;;11.00;99.90;;;;;;1019471;29;20053;-65
2022/03/22 02:31:09;;;;;;;23.67;21.27;;;11.00;99.90;;;;;;1019865;29;20269;-65
2022/03/22 02:31:40;;;;;;;24.50;21.90;;;11.00;99.90;;;;;;1019691;29;20064;-65
2022/03/22 02:32:10;;;;;;;27.93;21.33;;;11.00;99.90;;;;;;1020230;29;20105;-65
2022/03/22 02:32:52;;;;;;;25.17;22.53;;;11.00;99.90;;;;;;1019609;29;20122;-64
2022/03/22 02:33:22;;;;;;;24.42;21.75;;;11.00;99.90;;;;;;1019600;29;20012;-65
2022/03/22 02:33:53;;;;;;;25.23;22.73;;;11.00;99.90;;;;;;1019798;29;20027;-66
2022/03/22 02:34:24;;;;;;;24.03;21.67;;;11.00;99.90;;;;;;1019170;29;20023;-65
2022/03/22 02:34:54;;;;;;;27.27;22.70;;;11.00;99.90;;;;;;1019813;29;20061;-66
2022/03/22 02:35:25;;;;;;;23.73;21.33;;;11.00;99.90;;;;;;1019816;29;20079;-65
2022/03/22 02:35:56;;;;;;;26.50;22.95;;;11.00;99.90;;;;;;1019931;29;20155;-67
2022/03/22 02:36:26;;;;;;;24.30;22.00;;;11.00;99.90;;;;;;1020303;29;20030;-65
2022/03/22 02:36:57;;;;;;;25.13;22.53;;;10.90;99.90;;;;;;1020015;29;20018;-66
2022/03/22 02:37:28;;;;;;;24.42;21.85;;;11.00;99.90;;;;;;1019692;29;20011;-66
2022/03/22 02:37:58;;;;;;;24.37;21.97;;;10.90;99.90;;;;;;1019905;29;20023;-67
2022/03/22 02:38:29;;;;;;;23.93;21.60;;;10.90;99.90;;;;;;1020121;29;20495;-66
2022/03/22 02:38:59;;;;;;;24.17;21.77;;;11.00;99.90;;;;;;1020012;29;20075;-67
2022/03/22 02:39:31;;;;;;;24.40;21.67;;;10.90;99.90;;;;;;1020116;29;20011;-67
2022/03/22 02:40:02;;;;;;;24.08;21.58;;;10.90;99.90;;;;;;1020158;29;20020;-65
2022/03/22 02:40:32;;;;;;;23.33;20.83;;;10.90;99.90;;;;;;1020078;29;20016;-66
2022/03/22 02:41:05;;;;;;;25.43;20.47;;;10.90;99.90;;;;;;1020190;29;20408;-65
2022/03/22 02:41:35;;;;;;;22.88;20.63;;;10.90;99.90;;;;;;1019562;29;20789;-66
2022/03/22 02:42:06;;;;;;;22.23;20.03;;;10.90;99.90;;;;;;1019660;29;20796;-65
2022/03/22 02:42:37;;;;;;;22.10;19.80;;;10.90;99.90;;;;;;1017716;29;20052;-66
2022/03/22 02:43:08;;;;;;;23.20;20.23;;;10.90;99.90;;;;;;1015784;29;20260;-65
2022/03/22 02:43:38;;;;;;;24.17;21.67;;;10.90;99.90;;;;;;1015546;29;20066;-65
2022/03/22 02:44:10;;;;;;;22.43;20.13;;;10.90;99.90;;;;;;1018374;29;20092;-66
2022/03/22 02:44:41;;;;;;;23.17;20.45;;;10.90;99.90;;;;;;1018630;29;20083;-65
2022/03/22 02:45:12;;;;;;;24.80;22.10;;;10.90;99.90;;;;;;1019771;29;20086;-65
2022/03/22 02:45:42;;;;;;;24.13;21.65;;;10.90;99.90;;;;;;1020053;29;20026;-66